Latest Weather Observations for Smithton

IDT60801

Issued at 6:02 pm EST Monday 25 September 2017 (issued every 30 minutes, with the page automatically refreshed every 10 minutes)

About weather observations | Map of weather stations | Latest weather observations for TAS | Other Formats
Station Details ID: 091292 Name: SMITHTON AERODROME Lat: -40.83 Lon: 145.08 Height: 7.5 m
Data from the previous 72 hours. | See also: Recent months at Smithton
Date/Time
EST
Temp
°C
App
Temp
°C
Dew
Point
°C
Rel
Hum
%
Delta-T
°C
Wind Press
QNH
hPa
Press
MSL
hPa
Rain since
9am
mm
Dir  Spd
km/h
Gust
km/h
Spd
kts
Gust
kts
25/06:00pm 7.9 3.5 4.8 81 1.4 WSW 17 22 9 12 1009.6 1009.6 1.0
25/05:30pm 9.1 1.8 4.3 72 2.1 SW 32 41 17 22 1009.1 - 1.0
25/05:00pm 9.5 3.0 4.7 72 2.1 WSW 28 37 15 20 1008.6 - 1.0
25/04:30pm 9.6 3.2 6.9 83 1.3 SW 30 39 16 21 1008.2 - 1.0
25/04:00pm 9.9 3.6 7.3 84 1.2 SW 30 39 16 21 1007.9 - 1.0
25/03:54pm 9.3 2.0 7.3 87 0.9 SW 35 54 19 29 1007.9 - 1.0
25/03:30pm 9.7 2.3 6.8 82 1.4 WSW 35 48 19 26 1007.5 - 1.0
25/03:00pm 9.1 2.4 7.5 90 0.8 SW 32 44 17 24 1007.3 1007.3 1.0
25/02:46pm 9.9 2.0 6.1 77 1.8 SW 37 57 20 31 1007.2 - 0.8
25/02:30pm 11.8 3.7 5.2 64 3.0 SW 37 54 20 29 1006.8 - 0.8
25/02:00pm 12.1 4.2 4.6 60 3.4 WSW 35 43 19 23 1006.5 - 0.8
25/01:30pm 11.9 4.5 4.9 62 3.2 WSW 33 46 18 25 1006.3 - 0.8
25/01:00pm 9.7 2.4 5.3 74 2.0 SW 33 52 18 28 1006.2 - 0.8
25/12:30pm 10.0 1.7 7.9 87 1.0 WSW 41 59 22 32 1006.0 - 0.8
25/12:22pm 10.3 3.0 7.0 80 1.6 SW 35 59 19 32 1005.9 - 0.8
25/12:00pm 10.8 3.4 6.6 75 2.0 SW 35 50 19 27 1005.7 1005.7 0.8
25/11:30am 10.3 3.9 7.0 80 1.6 SW 30 52 16 28 1005.4 - 0.6
25/11:00am 11.8 5.1 7.5 75 2.1 WSW 32 41 17 22 1004.9 - 0.4
25/10:42am 10.5 4.6 7.4 81 1.5 WSW 28 46 15 25 1005.0 - 0.4
25/10:30am 8.8 1.7 5.7 81 1.4 WSW 32 39 17 21 1004.8 - 0.4
25/10:00am 9.6 2.6 6.0 78 1.7 SW 32 43 17 23 1004.6 - 0.0
25/09:30am 10.7 3.5 5.0 68 2.6 WSW 32 44 17 24 1004.1 - 0.0
25/09:00am 10.7 3.8 6.5 75 2.0 WSW 32 41 17 22 1003.9 1003.9 4.2
25/08:30am 9.9 3.7 6.2 78 1.7 SW 28 37 15 20 1003.5 - 4.2
25/08:00am 9.2 4.6 6.3 82 1.3 SW 20 30 11 16 1003.0 - 4.2
25/07:30am 8.8 4.3 6.8 87 0.9 SW 20 30 11 16 1002.7 - 4.2
25/07:00am 7.6 3.1 6.1 90 0.7 WSW 19 22 10 12 1002.2 - 4.2
25/06:30am 7.1 3.0 6.4 95 0.3 WSW 17 20 9 11 1001.9 - 4.2
25/06:00am 6.9 2.8 6.3 96 0.3 WSW 17 20 9 11 1001.3 1001.3 4.2
25/05:30am 7.3 3.3 6.7 96 0.3 WSW 17 20 9 11 1000.9 - 4.0
25/05:00am 7.6 3.1 6.9 95 0.3 W 20 28 11 15 1000.5 - 3.8
25/04:30am 7.5 3.1 6.6 94 0.4 WSW 19 26 10 14 1000.0 - 3.8
25/04:00am 7.6 3.0 6.7 94 0.4 WSW 20 26 11 14 999.6 - 3.8
25/03:30am 7.2 3.1 6.1 93 0.5 SW 17 22 9 12 999.0 - 3.8
25/03:00am 7.8 3.2 6.4 91 0.6 SW 20 26 11 14 998.8 998.8 3.8
25/02:30am 7.8 3.4 6.6 92 0.6 WSW 19 26 10 14 998.5 - 3.8
25/02:00am 8.2 3.7 6.8 91 0.6 WSW 20 33 11 18 998.4 - 3.8
25/01:30am 8.1 3.7 7.2 94 0.4 SW 20 26 11 14 998.1 - 3.8
25/01:00am 8.7 3.6 7.6 93 0.5 SW 24 32 13 17 997.8 - 3.8
25/12:30am 9.1 3.8 8.3 95 0.4 SW 26 35 14 19 997.3 - 3.8
25/12:00am 9.4 3.4 8.5 94 0.4 WSW 30 41 16 22 996.8 996.8 3.8
 
Date/Time
EST
Temp
°C
App
Temp
°C
Dew
Point
°C
Rel
Hum
%
Delta-T
°C
Wind Press
QNH
hPa
Press
MSL
hPa
Rain since
9am
mm
Dir  Spd
km/h
Gust
km/h
Spd
kts
Gust
kts
24/11:30pm 9.6 4.4 8.7 94 0.4 SW 26 33 14 18 996.2 - 3.8
24/11:00pm 10.2 5.1 9.3 94 0.4 WSW 26 41 14 22 995.4 - 3.6
24/10:30pm 10.3 6.0 9.5 95 0.4 SW 22 32 12 17 994.8 - 3.6
24/10:00pm 10.6 6.5 10.0 96 0.3 W 22 33 12 18 994.0 - 3.6
24/09:30pm 10.7 6.1 9.5 92 0.6 W 24 33 13 18 993.5 - 3.4
24/09:00pm 10.6 7.0 9.7 94 0.5 W 19 28 10 15 993.1 993.1 3.4
24/08:30pm 10.8 6.6 9.9 94 0.5 W 22 30 12 16 992.6 - 3.4
24/08:00pm 10.9 6.4 10.0 94 0.5 W 24 35 13 19 992.1 - 3.4
24/07:30pm 10.7 6.9 9.9 95 0.4 WNW 20 24 11 13 991.5 - 3.4
24/07:00pm 10.9 5.9 9.7 92 0.6 WNW 26 39 14 21 991.2 - 3.2
24/06:30pm 11.4 5.8 10.0 91 0.7 WNW 30 44 16 24 990.9 - 3.2
24/06:00pm 12.2 8.4 11.1 93 0.6 NW 22 32 12 17 990.8 990.9 3.0
24/05:30pm 12.1 7.1 11.0 93 0.6 NW 28 35 15 19 990.7 - 2.6
24/05:00pm 11.4 6.3 10.5 94 0.5 NW 28 39 15 21 990.9 - 2.6
24/04:56pm 11.4 5.9 10.5 94 0.5 NW 30 48 16 26 991.0 - 2.6
24/04:30pm 11.3 5.4 9.2 87 1.0 WNW 30 46 16 25 990.8 - 1.8
24/04:00pm 12.0 7.4 11.2 95 0.4 WNW 26 39 14 21 990.9 - 1.6
24/03:30pm 12.6 4.4 10.3 86 1.2 NW 44 69 24 37 991.1 - 1.2
24/03:00pm 13.8 5.7 10.8 82 1.6 NW 44 63 24 34 991.0 991.1 1.2
24/02:57pm 13.8 5.8 10.6 81 1.7 NW 43 63 23 34 991.0 - 1.2
24/02:30pm 13.2 5.9 10.2 82 1.6 NW 39 56 21 30 991.3 - 1.2
24/02:29pm 13.3 6.4 10.3 82 1.6 NW 37 56 20 30 991.5 - 1.2
24/02:00pm 13.2 6.1 10.9 86 1.2 NW 39 50 21 27 991.3 - 1.2
24/01:30pm 12.0 4.2 9.9 87 1.1 WNW 41 63 22 34 991.8 - 1.0
24/01:27pm 12.4 4.7 10.1 86 1.2 WNW 41 63 22 34 991.8 - 1.0
24/01:00pm 14.1 6.0 9.9 76 2.2 WNW 43 59 23 32 991.9 - 0.2
24/12:32pm 13.7 5.4 9.2 74 2.3 WNW 43 61 23 33 991.9 - 0.2
24/12:30pm 13.9 6.0 9.3 74 2.3 WNW 41 54 22 29 991.9 - 0.2
24/12:12pm 14.2 6.9 10.2 77 2.1 WNW 39 57 21 31 992.0 - 0.2
24/12:00pm 13.4 6.0 10.0 80 1.8 WNW 39 50 21 27 992.2 992.2 0.2
24/11:30am 12.9 6.0 10.3 84 1.3 WNW 37 56 20 30 992.0 - 0.2
24/11:04am 12.5 4.4 10.2 86 1.2 WNW 43 61 23 33 992.1 - 0.0
24/11:00am 12.4 3.2 9.6 83 1.4 WNW 48 61 26 33 992.2 - 0.0
24/10:43am 14.6 6.0 9.0 69 2.9 WNW 44 63 24 34 992.0 - 0.0
24/10:30am 14.3 6.3 9.1 71 2.6 WNW 41 52 22 28 992.0 - 0.0
24/10:11am 14.0 7.3 9.6 75 2.3 WNW 35 56 19 30 992.0 - 0.0
24/10:00am 14.6 9.2 11.0 79 1.9 WNW 30 44 16 24 992.1 - 0.0
24/09:30am 12.9 8.5 10.3 84 1.3 WNW 24 33 13 18 992.4 - 0.0
24/09:00am 12.6 8.5 10.1 85 1.3 WNW 22 28 12 15 992.3 992.3 8.4
24/08:30am 11.7 7.5 9.8 88 1.0 NW 22 28 12 15 992.4 - 8.4
24/08:00am 11.5 6.9 9.8 89 0.9 WNW 24 33 13 18 992.4 - 8.4
24/07:30am 11.3 6.1 10.4 94 0.5 WNW 28 35 15 19 992.2 - 8.4
24/07:00am 11.7 6.8 9.9 89 0.9 NW 26 32 14 17 992.1 - 8.4
24/06:30am 11.3 6.8 10.0 92 0.7 WNW 24 32 13 17 992.1 - 8.4
24/06:00am 11.1 6.9 9.9 92 0.6 WNW 22 30 12 16 991.7 991.7 8.4
24/05:30am 11.1 6.7 10.3 95 0.4 W 24 28 13 15 991.7 - 8.4
24/05:05am 11.4 4.9 10.3 93 0.6 WNW 35 56 19 30 991.6 - 8.2
24/05:00am 11.4 5.4 10.1 92 0.7 WNW 32 48 17 26 991.7 - 8.2
24/04:55am 11.4 6.2 10.1 92 0.7 WNW 28 48 15 26 991.6 - 8.2
24/04:30am 11.2 6.3 10.1 93 0.6 WNW 26 37 14 20 991.5 - 8.2
24/04:00am 10.5 6.0 9.9 96 0.3 WNW 24 35 13 19 991.8 - 8.2
24/03:30am 10.3 3.5 9.1 92 0.6 W 35 48 19 26 991.9 - 8.2
24/03:10am 11.7 5.8 10.4 92 0.7 WNW 32 54 17 29 991.7 - 7.4
24/03:00am 11.7 6.1 10.3 91 0.7 WNW 30 43 16 23 991.8 991.8 7.4
24/02:30am 11.6 5.5 10.5 93 0.6 WNW 33 46 18 25 991.7 - 7.4
24/02:00am 11.5 7.6 10.7 95 0.4 WNW 22 32 12 17 992.1 - 7.0
24/01:30am 11.2 4.7 10.4 95 0.4 W 35 46 19 25 992.2 - 7.0
24/01:13am 11.8 5.7 10.4 91 0.7 WNW 33 56 18 30 992.4 - 6.2
24/01:00am 11.8 4.9 10.4 91 0.7 WNW 37 50 20 27 992.3 - 6.2
24/12:36am 11.7 6.7 11.1 96 0.3 WNW 28 57 15 31 992.4 - 6.2
24/12:30am 11.8 7.2 11.2 96 0.3 WNW 26 32 14 17 992.4 - 6.2
24/12:00am 12.0 5.5 10.2 89 0.9 WNW 35 48 19 26 992.5 992.5 5.8
 
Date/Time
EST
Temp
°C
App
Temp
°C
Dew
Point
°C
Rel
Hum
%
Delta-T
°C
Wind Press
QNH
hPa
Press
MSL
hPa
Rain since
9am
mm
Dir  Spd
km/h
Gust
km/h
Spd
kts
Gust
kts
23/11:30pm 12.0 5.0 10.1 88 1.0 WNW 37 54 20 29 992.5 - 5.8
23/11:07pm 12.3 4.6 10.2 87 1.1 WNW 41 59 22 32 992.4 - 5.8
23/11:00pm 12.3 5.1 10.4 88 1.0 WNW 39 54 21 29 992.4 - 5.8
23/10:34pm 12.4 6.4 10.8 90 0.8 WNW 33 52 18 28 992.5 - 5.8
23/10:30pm 12.5 6.1 10.7 89 0.9 WNW 35 52 19 28 992.4 - 5.8
23/10:29pm 12.5 6.5 10.9 90 0.8 WNW 33 52 18 28 992.5 - 5.8
23/10:00pm 12.5 6.6 11.2 92 0.7 NW 33 44 18 24 992.3 - 5.8
23/09:30pm 12.5 6.1 10.7 89 0.9 WNW 35 50 19 27 992.0 - 5.8
23/09:26pm 12.6 6.8 10.8 89 0.9 WNW 32 50 17 27 992.2 - 5.8
23/09:00pm 12.3 7.1 11.5 95 0.4 WNW 30 39 16 21 992.4 992.4 5.8
23/08:30pm 12.2 9.5 11.7 97 0.3 NW 17 24 9 13 992.1 - 5.4
23/08:00pm 11.7 8.9 11.4 98 0.2 NW 17 24 9 13 992.1 - 5.4
23/07:30pm 11.4 9.7 11.2 99 0.1 N 11 13 6 7 992.2 - 5.4
23/07:00pm 11.5 9.1 11.3 99 0.1 N 15 19 8 10 992.3 - 5.4
23/06:30pm 11.5 10.2 11.2 98 0.2 NNW 9 13 5 7 991.2 - 5.4
23/06:00pm 11.8 9.4 11.3 97 0.3 NW 15 22 8 12 992.3 992.3 5.2
23/05:30pm 12.4 8.8 11.9 97 0.3 NW 22 30 12 16 993.0 - 4.6
23/05:04pm 12.4 6.8 12.1 98 0.2 NNW 33 52 18 28 993.0 - 4.2
23/05:00pm 12.6 6.2 12.1 97 0.3 NNW 37 52 20 28 992.9 - 4.2
23/04:57pm 12.8 6.2 12.5 98 0.2 NNW 39 48 21 26 992.8 - 4.2
23/04:30pm 13.3 11.3 12.7 96 0.3 NW 15 20 8 11 991.2 - 2.8
23/04:19pm 13.5 11.7 12.2 92 0.7 N 13 19 7 10 991.6 - 1.2
23/04:00pm 14.5 10.9 12.0 85 1.4 ENE 22 35 12 19 989.5 - 0.4
23/03:30pm 14.8 11.2 11.9 83 1.6 ENE 22 35 12 19 990.3 - 0.4
23/03:00pm 15.4 12.0 12.5 83 1.6 ENE 22 33 12 18 989.9 990.0 0.4
23/02:30pm 15.5 12.8 12.8 84 1.5 E 19 28 10 15 990.7 - 0.4
23/02:00pm 15.2 12.6 13.2 88 1.1 E 19 26 10 14 991.0 - 0.4
23/01:30pm 13.6 10.7 12.2 91 0.8 E 19 26 10 14 990.5 - 0.4
23/01:00pm 13.2 11.5 12.4 95 0.4 ENE 13 17 7 9 991.7 - 0.4
23/12:30pm 13.0 10.0 12.1 94 0.5 ESE 19 22 10 12 991.2 - 0.4
23/12:28pm 13.1 10.2 12.2 94 0.5 ESE 19 20 10 11 991.7 - 0.4
23/12:00pm 13.1 10.6 12.2 94 0.5 E 17 26 9 14 993.7 993.7 0.4
23/11:30am 12.9 10.3 12.1 95 0.4 ESE 17 22 9 12 994.2 - 0.4
23/11:29am 12.8 10.2 12.0 95 0.4 ESE 17 22 9 12 994.4 - 0.4
23/11:00am 13.0 11.6 12.1 94 0.5 NE 11 17 6 9 996.5 - 0.2
23/10:30am 12.5 10.9 11.7 95 0.4 E 11 15 6 8 996.0 - 0.2
23/10:00am 12.2 9.1 11.6 96 0.3 E 19 22 10 12 995.9 - 0.2
23/09:30am 12.2 8.9 11.6 96 0.3 E 20 28 11 15 997.1 - 0.0
23/09:00am 12.0 8.6 11.2 95 0.4 E 20 26 11 14 997.6 997.6 3.8
23/08:30am 11.8 8.6 11.3 97 0.3 E 19 28 10 15 997.6 - 3.8
23/08:00am 11.5 8.3 11.3 99 0.1 E 19 24 10 13 998.1 - 3.8
23/07:57am 11.5 8.7 11.2 98 0.2 E 17 22 9 12 998.3 - 3.8
23/07:30am 11.7 9.2 11.1 96 0.3 NE 15 30 8 16 1000.3 - 3.0
23/07:18am 11.4 10.4 10.9 97 0.3 N 7 20 4 11 1001.0 - 2.4
23/07:00am 11.3 7.4 10.8 97 0.3 E 22 39 12 21 999.0 - 1.2
23/06:49am 11.2 5.7 10.7 97 0.3 E 30 44 16 24 997.1 - 1.2
23/06:30am 11.2 7.8 10.6 96 0.3 E 19 26 10 14 997.9 - 0.8
23/06:00am 11.5 7.2 10.7 95 0.4 E 24 39 13 21 997.8 997.8 0.8
23/05:30am 11.4 6.0 10.8 96 0.3 E 30 41 16 22 997.7 - 0.8
23/05:00am 11.4 5.8 10.3 93 0.6 E 30 39 16 21 998.7 - 0.8
23/04:30am 11.4 6.2 10.3 93 0.6 E 28 39 15 21 999.2 - 0.8
23/04:00am 11.5 6.3 10.4 93 0.6 E 28 35 15 19 999.5 - 0.8
23/03:30am 11.4 5.5 10.6 95 0.4 ENE 32 48 17 26 1000.3 - 0.8
23/03:00am 11.4 5.3 10.6 95 0.4 E 33 46 18 25 1000.3 1000.3 0.8
23/02:54am 11.5 6.4 10.7 95 0.4 E 28 46 15 25 1000.4 - 0.8
23/02:30am 11.3 5.2 10.4 94 0.5 E 33 46 18 25 1000.8 - 0.6
23/02:00am 11.2 5.1 10.3 94 0.5 E 33 46 18 25 1001.2 - 0.6
23/01:30am 11.3 4.4 10.4 94 0.5 E 37 50 20 27 1001.5 - 0.6
23/01:06am 11.2 5.7 10.4 95 0.4 E 30 48 16 26 1002.1 - 0.6
23/01:00am 11.2 5.7 10.4 95 0.4 E 30 41 16 22 1002.0 - 0.6
23/12:30am 11.2 5.7 10.4 95 0.4 E 30 39 16 21 1002.7 - 0.6
23/12:11am 11.2 5.3 10.6 96 0.3 E 32 50 17 27 1003.4 - 0.6
23/12:00am 11.1 6.0 10.5 96 0.3 E 28 39 15 21 1003.4 1003.4 0.6
 
Date/Time
EST
Temp
°C
App
Temp
°C
Dew
Point
°C
Rel
Hum
%
Delta-T
°C
Wind Press
QNH
hPa
Press
MSL
hPa
Rain since
9am
mm
Dir  Spd
km/h
Gust
km/h
Spd
kts
Gust
kts
22/11:30pm 11.1 5.6 10.5 96 0.3 E 30 44 16 24 1004.0 - 0.6
22/11:00pm 11.1 6.3 10.3 95 0.4 E 26 39 14 21 1004.4 - 0.2
22/10:30pm 11.1 6.3 10.3 95 0.4 E 26 35 14 19 1004.7 - 0.2
22/10:00pm 11.4 6.6 10.3 93 0.6 ENE 26 39 14 21 1005.2 - 0.2
22/09:30pm 11.3 6.1 10.2 93 0.6 ENE 28 41 15 22 1004.8 - 0.2
22/09:00pm 11.2 6.4 10.3 94 0.5 ENE 26 35 14 19 1005.6 1005.6 0.2
22/08:30pm 11.2 7.6 10.4 95 0.4 ENE 20 28 11 15 1006.3 - 0.2
22/08:00pm 11.3 7.7 10.5 95 0.4 ENE 20 26 11 14 1006.4 - 0.2
22/07:30pm 11.6 8.9 10.5 93 0.6 ENE 15 22 8 12 1007.3 - 0.2
22/07:00pm 11.6 8.6 10.5 93 0.6 ENE 17 26 9 14 1006.4 - 0.2
22/06:30pm 11.6 7.1 10.2 91 0.7 ENE 24 32 13 17 1005.1 - 0.2

Other Formats:

Comma delimited format used in spreadsheet applications
http://www.bom.gov.au/fwo/IDT60801/IDT60801.94953.axf

JavaScript Object Notation format (JSON) in row-major order
http://www.bom.gov.au/fwo/IDT60801/IDT60801.94953.json